Time;durP1;ratioP1;P1;durP2;ratioP2;P2;SDS_P1;SDS_P2;PMS_P1;PMS_P2;Temp;Humidity;BMP_temperature;BMP_pressure;BME280_temperature;BME280_humidity;BME280_pressure;Samples;Min_cycle;Max_cycle;Signal;HPM_P1;HPM_P2
2022/12/20 00:01:23;;;;;;;48.53;37.72;;;19.90;53.10;;;;;;5032683;28;20029;-71
2022/12/20 00:03:51;;;;;;;46.15;36.83;;;19.80;53.20;;;;;;5032990;28;20513;-72
2022/12/20 00:06:18;;;;;;;47.58;37.28;;;19.80;53.30;;;;;;5015382;28;20033;-70
2022/12/20 00:08:44;;;;;;;46.85;36.47;;;19.80;53.50;;;;;;4998272;28;20501;-71
2022/12/20 00:11:10;;;;;;;46.65;37.20;;;19.80;53.60;;;;;;5049122;28;20115;-71
2022/12/20 00:13:37;;;;;;;50.88;37.53;;;19.70;53.70;;;;;;5049628;28;20044;-70
2022/12/20 00:16:20;;;;;;;44.58;35.38;;;19.70;53.80;;;;;;5049061;28;20562;-71
2022/12/20 00:18:46;;;;;;;49.97;37.35;;;19.70;54.00;;;;;;5050066;28;20512;-72
2022/12/20 00:21:14;;;;;;;42.25;33.65;;;19.70;54.10;;;;;;5049147;28;20064;-72
2022/12/20 00:23:40;;;;;;;46.17;34.83;;;19.70;54.20;;;;;;5049042;28;20044;-70
2022/12/20 00:26:11;;;;;;;47.38;35.40;;;19.70;54.30;;;;;;5049490;28;20036;-72
2022/12/20 00:28:38;;;;;;;44.15;33.40;;;19.60;54.40;;;;;;5032244;28;20048;-71
2022/12/20 00:31:05;;;;;;;44.72;34.15;;;19.60;54.40;;;;;;5024930;28;20094;-71
2022/12/20 00:33:34;;;;;;;43.13;34.38;;;19.60;54.40;;;;;;5031229;28;20041;-72
2022/12/20 00:36:00;;;;;;;45.55;33.10;;;19.60;54.50;;;;;;5027463;28;20044;-72
2022/12/20 00:38:26;;;;;;;42.15;32.55;;;19.60;54.50;;;;;;5030603;28;20032;-71
2022/12/20 00:41:19;;;;;;;41.17;34.13;;;19.60;54.50;;;;;;5031102;28;20025;-71
2022/12/20 00:43:45;;;;;;;40.05;32.03;;;19.60;54.70;;;;;;5029186;28;20029;-71
2022/12/20 00:46:11;;;;;;;42.90;32.25;;;19.60;54.70;;;;;;5030663;28;20370;-71
2022/12/20 00:48:37;;;;;;;40.30;32.65;;;19.60;54.80;;;;;;5030552;28;20539;-71
2022/12/20 00:51:07;;;;;;;43.78;31.77;;;19.50;55.00;;;;;;5042348;28;20037;-72
2022/12/20 00:53:33;;;;;;;;;;;19.60;55.00;;;;;;5049050;28;20025;-71
2022/12/20 00:55:59;;;;;;;39.28;30.20;;;19.50;55.10;;;;;;5049449;28;20024;-71
2022/12/20 00:58:26;;;;;;;37.65;30.40;;;19.60;55.10;;;;;;5031443;28;20109;-71
2022/12/20 01:00:52;;;;;;;36.30;29.63;;;19.60;55.10;;;;;;5031973;28;20385;-70
2022/12/20 01:03:19;;;;;;;35.80;29.00;;;19.60;55.10;;;;;;5030638;28;20412;-71
2022/12/20 01:05:52;;;;;;;38.75;29.73;;;19.60;55.10;;;;;;5031871;28;20040;-70
2022/12/20 01:08:19;;;;;;;37.53;29.65;;;19.60;55.20;;;;;;5013636;28;20033;-70
2022/12/20 01:10:45;;;;;;;38.60;30.40;;;19.50;55.10;;;;;;5030515;28;20025;-70
2022/12/20 01:13:10;;;;;;;37.80;28.45;;;19.50;55.80;;;;;;5030787;28;20440;-71
2022/12/20 01:15:36;;;;;;;37.00;29.42;;;19.50;55.10;;;;;;5032253;28;20481;-71
2022/12/20 01:18:02;;;;;;;39.88;28.48;;;19.50;55.10;;;;;;5032238;28;20033;-71
2022/12/20 01:20:28;;;;;;;37.28;27.80;;;19.50;54.70;;;;;;5030983;28;20025;-70
2022/12/20 01:22:53;;;;;;;39.88;29.48;;;19.60;55.40;;;;;;5030734;28;20439;-71
2022/12/20 01:25:19;;;;;;;40.83;28.30;;;19.50;55.00;;;;;;5030814;28;20095;-71
2022/12/20 01:27:45;;;;;;;36.40;28.85;;;19.50;55.20;;;;;;5031068;28;20030;-71
2022/12/20 01:30:12;;;;;;;35.58;27.63;;;19.50;55.30;;;;;;5030598;28;20037;-72
2022/12/20 01:32:38;;;;;;;33.85;25.45;;;19.50;55.50;;;;;;5030809;28;20025;-72
2022/12/20 01:35:04;;;;;;;41.15;26.05;;;19.50;55.00;;;;;;5031920;28;20056;-71
2022/12/20 01:37:30;;;;;;;50.63;26.67;;;19.50;55.20;;;;;;5031881;28;20549;-71
2022/12/20 01:39:56;;;;;;;47.97;27.30;;;19.50;55.00;;;;;;5030262;28;20112;-71
2022/12/20 01:42:22;;;;;;;32.70;25.42;;;19.50;54.90;;;;;;5032123;28;20028;-71
2022/12/20 01:44:53;;;;;;;40.90;25.88;;;19.50;54.60;;;;;;5014210;28;20025;-71
2022/12/20 01:47:20;;;;;;;37.25;24.83;;;19.50;54.80;;;;;;5030471;28;20493;-71
2022/12/20 01:49:49;;;;;;;34.05;25.42;;;19.50;54.80;;;;;;5013772;28;20060;-71
2022/12/20 01:52:18;;;;;;;32.75;24.75;;;19.50;54.80;;;;;;5031706;28;20087;-71
2022/12/20 01:54:47;;;;;;;34.35;24.88;;;19.40;54.60;;;;;;5030484;28;20036;-71
2022/12/20 01:57:26;;;;;;;38.60;23.97;;;19.50;54.80;;;;;;5030425;28;20026;-71
2022/12/20 01:59:54;;;;;;;33.47;25.00;;;19.40;54.80;;;;;;5030017;28;20356;-71
2022/12/20 02:02:19;;;;;;;31.48;24.40;;;19.50;54.90;;;;;;5031633;28;20040;-71
2022/12/20 02:04:45;;;;;;;31.85;23.33;;;19.50;54.80;;;;;;5030199;28;20041;-71
2022/12/20 02:07:18;;;;;;;30.63;23.70;;;19.50;54.80;;;;;;5037459;28;20619;-70
2022/12/20 02:09:44;;;;;;;31.48;22.98;;;19.50;54.50;;;;;;5045468;28;20036;-70
2022/12/20 02:12:38;;;;;;;30.42;23.23;;;19.50;54.80;;;;;;5033666;28;20048;-71
2022/12/20 02:15:55;;;;;;;32.17;22.25;;;19.50;54.90;;;;;;5038583;28;20167;-71
2022/12/20 02:18:38;;;;;;;41.97;22.77;;;19.50;55.10;;;;;;4997134;28;20042;-71
2022/12/20 02:21:06;;;;;;;30.27;21.27;;;19.50;55.00;;;;;;5030091;28;20025;-70
2022/12/20 02:24:03;;;;;;;28.30;21.98;;;19.50;54.60;;;;;;5030034;28;20519;-71
2022/12/20 02:27:03;;;;;;;28.13;21.67;;;19.50;54.90;;;;;;5013998;28;20034;-71
2022/12/20 02:29:56;;;;;;;29.70;21.33;;;19.50;55.60;;;;;;5013331;28;20164;-70
2022/12/20 02:32:32;;;;;;;43.78;21.85;;;19.50;55.20;;;;;;5013923;28;20041;-71
2022/12/20 02:34:58;;;;;;;28.02;20.50;;;19.50;55.40;;;;;;5032893;28;20108;-71
2022/12/20 02:37:24;;;;;;;31.90;21.50;;;19.50;55.20;;;;;;5034223;28;20026;-71
2022/12/20 02:39:50;;;;;;;27.40;20.45;;;19.40;55.10;;;;;;5033571;28;20045;-71
2022/12/20 02:42:20;;;;;;;29.27;20.83;;;19.50;54.80;;;;;;5034016;28;20074;-71
2022/12/20 02:47:44;;;;;;;28.33;19.52;;;19.50;54.70;;;;;;5034093;28;20444;-71
2022/12/20 02:50:11;;;;;;;25.00;18.40;;;19.50;54.40;;;;;;5017197;28;20033;-71
2022/12/20 02:52:38;;;;;;;26.40;19.30;;;19.40;54.50;;;;;;5033735;28;20025;-70
2022/12/20 02:55:05;;;;;;;25.60;19.23;;;19.50;54.70;;;;;;5017229;28;20037;-71
2022/12/20 02:57:42;;;;;;;28.40;19.77;;;19.40;54.50;;;;;;5033840;28;20072;-71
2022/12/20 03:00:20;;;;;;;28.42;19.23;;;19.50;54.60;;;;;;5016821;28;20108;-70
2022/12/20 03:05:34;;;;;;;26.95;18.60;;;19.40;54.80;;;;;;5017093;28;20040;-71
2022/12/20 03:08:00;;;;;;;26.17;17.52;;;19.50;55.20;;;;;;5033578;28;20044;-70
2022/12/20 03:10:27;;;;;;;24.67;17.70;;;19.50;55.10;;;;;;5016869;28;20498;-70
2022/12/20 03:12:53;;;;;;;26.30;18.25;;;19.50;55.50;;;;;;5033525;28;20041;-71
2022/12/20 03:15:19;;;;;;;23.35;18.08;;;19.50;55.60;;;;;;5017070;28;20036;-70
2022/12/20 03:17:48;;;;;;;28.30;18.35;;;19.50;55.60;;;;;;5017092;28;20083;-70
2022/12/20 03:20:14;;;;;;;23.30;17.45;;;19.50;55.60;;;;;;5046353;28;20037;-70
2022/12/20 03:22:39;;;;;;;24.05;17.23;;;19.50;55.50;;;;;;5053257;28;20033;-70
2022/12/20 03:25:06;;;;;;;25.52;18.45;;;19.50;55.40;;;;;;5053125;28;20067;-71
2022/12/20 03:27:33;;;;;;;29.73;17.95;;;19.50;55.40;;;;;;5036745;28;20043;-70
2022/12/20 03:30:00;;;;;;;26.55;17.50;;;19.50;55.30;;;;;;5052677;28;20419;-71
2022/12/20 03:32:28;;;;;;;26.48;17.90;;;19.50;55.30;;;;;;5053453;28;20036;-71
2022/12/20 03:34:54;;;;;;;25.10;17.55;;;19.50;55.30;;;;;;5054036;28;20025;-70
2022/12/20 03:37:27;;;;;;;24.27;17.70;;;19.50;55.60;;;;;;5053042;28;20060;-70
2022/12/20 03:39:53;;;;;;;23.67;16.90;;;19.50;55.40;;;;;;5052373;28;20457;-71
2022/12/20 03:42:19;;;;;;;27.73;16.98;;;19.50;55.60;;;;;;5052831;28;20020;-70
2022/12/20 03:44:45;;;;;;;23.70;16.77;;;19.50;55.10;;;;;;5036187;28;20029;-70
2022/12/20 03:47:11;;;;;;;25.67;16.55;;;19.50;55.60;;;;;;5035919;28;20037;-70
2022/12/20 03:49:36;;;;;;;23.48;16.77;;;19.50;55.80;;;;;;5052342;28;20051;-70
2022/12/20 03:52:03;;;;;;;22.77;16.27;;;19.50;55.70;;;;;;5052909;28;20310;-70
2022/12/20 03:54:28;;;;;;;23.58;16.58;;;19.50;55.30;;;;;;5036195;28;20477;-71
2022/12/20 03:57:08;;;;;;;22.85;15.80;;;19.50;55.30;;;;;;5037998;28;20365;-71
2022/12/20 03:59:34;;;;;;;23.10;16.00;;;19.50;55.70;;;;;;5052213;28;20031;-70
2022/12/20 04:02:01;;;;;;;21.55;15.93;;;19.50;55.70;;;;;;5035820;28;20033;-71
2022/12/20 04:04:29;;;;;;;22.95;15.68;;;19.50;55.80;;;;;;5035961;28;20477;-70
2022/12/20 04:06:54;;;;;;;24.45;16.02;;;19.50;55.70;;;;;;5035807;28;20033;-70
2022/12/20 04:09:20;;;;;;;24.25;15.95;;;19.50;56.00;;;;;;5052171;28;20029;-70
2022/12/20 04:11:51;;;;;;;22.73;16.17;;;19.50;56.70;;;;;;5052210;28;20123;-70
2022/12/20 04:14:17;;;;;;;22.25;15.30;;;19.50;56.00;;;;;;5035814;28;20129;-70
2022/12/20 04:16:43;;;;;;;26.55;15.95;;;19.50;56.50;;;;;;5052041;28;20033;-70
2022/12/20 04:19:10;;;;;;;23.35;15.27;;;19.50;56.70;;;;;;5035314;28;20037;-70
2022/12/20 04:21:40;;;;;;;24.15;16.20;;;19.50;56.40;;;;;;5035704;28;20068;-70
2022/12/20 04:24:06;;;;;;;22.80;15.20;;;19.50;56.40;;;;;;5035646;28;20068;-70
2022/12/20 04:26:41;;;;;;;21.35;14.70;;;19.50;55.90;;;;;;5051949;28;20438;-70
2022/12/20 04:29:08;;;;;;;21.88;14.75;;;19.50;56.00;;;;;;5051606;28;20036;-70
2022/12/20 04:31:33;;;;;;;23.05;14.50;;;19.50;56.30;;;;;;5051985;28;20033;-71
2022/12/20 04:33:59;;;;;;;20.55;13.93;;;19.50;56.00;;;;;;5051794;28;20086;-70
2022/12/20 04:36:25;;;;;;;21.95;14.68;;;19.50;56.20;;;;;;5051841;28;20037;-70
2022/12/20 04:38:53;;;;;;;20.80;14.82;;;19.50;56.00;;;;;;5051297;28;20029;-70
2022/12/20 04:41:22;;;;;;;23.23;14.77;;;19.50;56.30;;;;;;5051574;28;20252;-70
2022/12/20 04:43:55;;;;;;;21.00;14.45;;;19.50;56.30;;;;;;5051647;28;20036;-70
2022/12/20 04:46:23;;;;;;;22.02;14.43;;;19.50;56.40;;;;;;5018933;28;20036;-70
2022/12/20 04:48:51;;;;;;;21.15;14.70;;;19.50;56.20;;;;;;5051347;28;20469;-70
2022/12/20 04:51:17;;;;;;;20.27;13.82;;;19.50;56.30;;;;;;5051603;28;20028;-70
2022/12/20 04:53:47;;;;;;;19.70;13.55;;;19.50;56.40;;;;;;5018479;28;20047;-70
2022/12/20 04:56:27;;;;;;;23.75;13.20;;;19.50;56.00;;;;;;5051321;28;20060;-70
2022/12/20 04:58:56;;;;;;;21.80;14.23;;;19.50;56.30;;;;;;5050584;28;20036;-70
2022/12/20 05:01:22;;;;;;;25.02;13.75;;;19.60;56.90;;;;;;5051215;28;20068;-70
2022/12/20 05:03:51;;;;;;;23.35;13.80;;;19.60;56.80;;;;;;5051028;28;20048;-70
2022/12/20 05:06:17;;;;;;;20.02;13.70;;;19.50;56.50;;;;;;5007114;28;20478;-70
2022/12/20 05:08:43;;;;;;;34.97;13.65;;;19.50;56.60;;;;;;4992953;28;20079;-70
2022/12/20 05:11:09;;;;;;;22.35;13.43;;;19.50;56.30;;;;;;5030190;28;20108;-70
2022/12/20 05:13:35;;;;;;;23.05;13.52;;;19.60;56.40;;;;;;5014603;28;20071;-71
2022/12/20 05:16:02;;;;;;;20.83;13.95;;;19.50;56.60;;;;;;5014576;28;20033;-71
2022/12/20 05:18:32;;;;;;;21.00;13.50;;;19.50;56.50;;;;;;5030307;28;20112;-71
2022/12/20 05:26:50;;;;;;;23.92;13.73;;;19.50;56.60;;;;;;5014486;28;20044;-70
2022/12/20 05:29:17;;;;;;;18.77;12.93;;;19.50;56.60;;;;;;5014233;28;20034;-70
2022/12/20 05:31:43;;;;;;;22.88;13.48;;;19.50;56.40;;;;;;5030779;28;20083;-70
2022/12/20 05:34:09;;;;;;;21.02;12.75;;;19.50;56.20;;;;;;5030851;28;20033;-70
2022/12/20 05:36:37;;;;;;;20.50;12.90;;;19.50;56.30;;;;;;5030588;28;20109;-70
2022/12/20 05:39:05;;;;;;;21.63;12.93;;;19.40;56.30;;;;;;5030546;28;20033;-70
2022/12/20 05:41:33;;;;;;;17.45;12.30;;;19.40;56.00;;;;;;5030581;28;20099;-71
2022/12/20 05:44:00;;;;;;;19.92;12.93;;;19.50;56.30;;;;;;5013971;28;20033;-70
2022/12/20 05:46:26;;;;;;;20.30;12.88;;;19.50;56.70;;;;;;5030242;28;20045;-70
2022/12/20 05:48:58;;;;;;;19.45;13.25;;;19.50;57.20;;;;;;5030375;28;20452;-71
2022/12/20 05:51:24;;;;;;;18.60;13.05;;;19.50;57.20;;;;;;5032228;28;20033;-71
2022/12/20 05:53:55;;;;;;;18.30;12.40;;;19.50;56.90;;;;;;5030566;28;20116;-71
2022/12/20 05:56:34;;;;;;;21.83;12.60;;;19.50;57.20;;;;;;5030395;28;20033;-71
2022/12/20 05:59:00;;;;;;;17.52;11.85;;;19.50;57.40;;;;;;5030012;28;20040;-71
2022/12/20 06:01:26;;;;;;;20.08;12.05;;;19.50;57.40;;;;;;5031440;28;20022;-71
2022/12/20 06:03:56;;;;;;;19.25;11.57;;;19.50;57.40;;;;;;5030420;28;20033;-71
2022/12/20 06:06:22;;;;;;;20.52;12.63;;;19.50;57.50;;;;;;5030113;28;20021;-71
2022/12/20 06:08:48;;;;;;;17.83;12.13;;;19.50;57.30;;;;;;5012922;28;20056;-71
2022/12/20 06:11:27;;;;;;;18.52;11.68;;;19.50;57.20;;;;;;5030176;28;20410;-70
2022/12/20 06:13:59;;;;;;;17.60;11.98;;;19.50;57.40;;;;;;5031587;28;20037;-70
2022/12/20 06:16:26;;;;;;;18.30;12.32;;;19.50;57.20;;;;;;5013763;28;20087;-70
2022/12/20 06:18:55;;;;;;;18.17;11.75;;;19.60;57.40;;;;;;5030148;28;20033;-71
2022/12/20 06:21:22;;;;;;;18.58;12.27;;;19.60;57.10;;;;;;5013751;28;20083;-71
2022/12/20 06:23:48;;;;;;;17.63;11.57;;;19.50;57.10;;;;;;5013801;28;20026;-71
2022/12/20 06:26:15;;;;;;;21.65;11.23;;;19.60;57.30;;;;;;5029921;28;20033;-71
2022/12/20 06:28:51;;;;;;;18.85;11.68;;;19.50;57.20;;;;;;5029748;28;20030;-71
2022/12/20 06:31:19;;;;;;;18.02;11.55;;;19.60;56.90;;;;;;5029806;28;20064;-70
2022/12/20 06:33:48;;;;;;;17.52;11.43;;;19.50;57.10;;;;;;5030349;28;20363;-70
2022/12/20 06:36:15;;;;;;;19.23;10.93;;;19.50;57.20;;;;;;5013829;28;20040;-71
2022/12/20 06:38:42;;;;;;;20.65;11.68;;;19.50;57.30;;;;;;5029807;28;20516;-70
2022/12/20 06:41:08;;;;;;;18.83;11.00;;;19.50;57.50;;;;;;5029921;28;20536;-71
2022/12/20 06:43:35;;;;;;;17.63;11.15;;;19.50;57.40;;;;;;5029946;28;20032;-70
2022/12/20 06:46:01;;;;;;;17.77;11.30;;;19.50;57.50;;;;;;5037046;23;20052;-78
2022/12/20 06:48:28;;;;;;;17.00;10.85;;;19.50;57.50;;;;;;5009498;28;20030;-78
2022/12/20 06:50:54;;;;;;;19.10;10.90;;;19.50;57.30;;;;;;5010317;28;20042;-79
2022/12/20 06:53:20;;;;;;;18.27;11.35;;;19.60;57.60;;;;;;4994640;28;20050;-79
2022/12/20 06:55:49;;;;;;;19.48;11.38;;;19.50;57.50;;;;;;5010367;28;20046;-79
2022/12/20 06:58:18;;;;;;;17.92;10.88;;;19.60;57.70;;;;;;5010394;28;20037;-80
2022/12/20 07:00:46;;;;;;;17.85;10.57;;;19.50;57.80;;;;;;4994282;28;20029;-79
2022/12/20 07:03:12;;;;;;;15.77;10.95;;;19.60;57.80;;;;;;5011428;28;20075;-79
2022/12/20 07:05:39;;;;;;;18.58;11.00;;;19.60;57.90;;;;;;5011615;28;20053;-81
2022/12/20 07:08:05;;;;;;;17.55;10.48;;;19.60;57.80;;;;;;5010228;28;20033;-80
2022/12/20 07:10:33;;;;;;;17.23;10.27;;;19.50;58.10;;;;;;5009877;28;20126;-79
2022/12/20 07:12:59;;;;;;;17.92;10.48;;;19.60;58.10;;;;;;5011438;28;20510;-79
2022/12/20 07:15:25;;;;;;;18.00;10.40;;;19.60;58.20;;;;;;5010435;28;20068;-79
2022/12/20 07:17:51;;;;;;;16.92;10.40;;;19.60;58.00;;;;;;5011613;28;20034;-79
2022/12/20 07:20:17;;;;;;;16.10;10.05;;;19.60;58.00;;;;;;5011896;28;20030;-80
2022/12/20 07:22:45;;;;;;;15.88;9.85;;;19.50;58.00;;;;;;4997611;28;20060;-79
2022/12/20 07:25:11;;;;;;;16.58;10.63;;;19.60;58.10;;;;;;5015363;28;20026;-79
2022/12/20 07:27:37;;;;;;;15.55;10.48;;;19.50;57.70;;;;;;4997652;28;20032;-79
2022/12/20 07:30:04;;;;;;;17.77;10.30;;;19.50;58.00;;;;;;5014694;28;20030;-78
2022/12/20 07:32:30;;;;;;;14.98;9.88;;;19.50;57.70;;;;;;5014819;28;20021;-79
2022/12/20 07:34:55;;;;;;;15.10;9.77;;;19.60;57.40;;;;;;5013648;28;20030;-79
2022/12/20 07:37:21;;;;;;;15.00;9.95;;;19.60;57.20;;;;;;5014833;28;20421;-79
2022/12/20 07:39:47;;;;;;;16.25;9.95;;;19.50;57.10;;;;;;5014736;28;20061;-80
2022/12/20 07:42:13;;;;;;;18.80;9.93;;;19.60;57.30;;;;;;4997176;28;20498;-80
2022/12/20 07:44:42;;;;;;;15.23;9.90;;;19.50;57.70;;;;;;5014591;28;20076;-78
2022/12/20 07:47:08;;;;;;;16.42;10.60;;;19.50;57.90;;;;;;5014540;28;20644;-79
2022/12/20 07:49:34;;;;;;;14.35;9.63;;;19.50;58.10;;;;;;5014426;28;20072;-79
2022/12/20 07:52:03;;;;;;;18.38;10.70;;;19.60;58.10;;;;;;5014588;28;20026;-78
2022/12/20 07:54:45;;;;;;;16.38;9.98;;;19.50;58.00;;;;;;5014635;28;20022;-78
2022/12/20 07:57:23;;;;;;;16.83;9.65;;;19.60;58.30;;;;;;5014614;28;20038;-78
2022/12/20 07:59:53;;;;;;;15.77;9.93;;;19.60;58.30;;;;;;5014345;28;20057;-78
2022/12/20 08:02:35;;;;;;;18.58;9.80;;;19.60;58.20;;;;;;5014292;28;20029;-79
2022/12/20 08:05:04;;;;;;;16.77;10.07;;;19.60;58.10;;;;;;5013419;28;20033;-79
2022/12/20 08:07:30;;;;;;;18.52;10.30;;;19.60;58.00;;;;;;5014020;28;20033;-78
2022/12/20 08:09:57;;;;;;;15.90;9.20;;;19.50;57.80;;;;;;5014161;28;20076;-79
2022/12/20 08:12:25;;;;;;;16.48;9.32;;;19.60;57.20;;;;;;5012959;28;20029;-80
2022/12/20 08:14:54;;;;;;;15.50;9.50;;;19.60;58.10;;;;;;5014155;28;20022;-81
2022/12/20 08:17:21;;;;;;;15.98;9.80;;;19.60;58.20;;;;;;5014033;28;20048;-82
2022/12/20 08:19:50;;;;;;;16.48;9.90;;;19.60;58.50;;;;;;4996667;28;20030;-80
2022/12/20 08:22:17;;;;;;;15.15;9.88;;;19.60;58.70;;;;;;5013045;28;20022;-81
2022/12/20 08:24:43;;;;;;;15.48;9.35;;;19.60;58.10;;;;;;5013679;28;20398;-80
2022/12/20 08:27:09;;;;;;;14.10;9.43;;;19.60;58.20;;;;;;5013568;28;20026;-80
2022/12/20 08:29:34;;;;;;;13.93;9.05;;;19.60;58.10;;;;;;5013775;28;20363;-81
2022/12/20 08:32:00;;;;;;;14.75;8.95;;;19.60;58.20;;;;;;5012811;28;20166;-81
2022/12/20 08:34:26;;;;;;;15.32;9.43;;;19.50;58.30;;;;;;5012340;28;20030;-81
2022/12/20 08:36:52;;;;;;;18.05;9.93;;;19.60;58.60;;;;;;5013624;28;20026;-83
2022/12/20 08:39:18;;;;;;;15.68;9.43;;;19.60;58.50;;;;;;5012177;28;20135;-81
2022/12/20 08:41:43;;;;;;;16.60;8.93;;;19.60;58.60;;;;;;5013933;28;20056;-80
2022/12/20 08:44:09;;;;;;;14.23;9.45;;;19.60;58.40;;;;;;5013548;28;20026;-80
2022/12/20 08:46:36;;;;;;;16.13;8.88;;;19.60;58.50;;;;;;5013330;28;20120;-80
2022/12/20 08:49:03;;;;;;;13.45;8.88;;;19.60;59.00;;;;;;5013084;28;20033;-80
2022/12/20 08:51:29;;;;;;;15.45;9.07;;;19.60;59.10;;;;;;5012280;28;20041;-80
2022/12/20 08:53:55;;;;;;;16.73;8.77;;;19.60;57.80;;;;;;5013598;28;20030;-80
2022/12/20 08:56:21;;;;;;;31.98;9.40;;;19.70;58.30;;;;;;5013160;28;20070;-80
2022/12/20 08:58:47;;;;;;;26.40;9.38;;;19.70;58.50;;;;;;5012732;28;20034;-77
2022/12/20 09:01:16;;;;;;;24.23;10.32;;;19.70;59.00;;;;;;5012002;28;20028;-75
2022/12/20 09:03:42;;;;;;;29.88;10.02;;;19.70;58.80;;;;;;4987107;28;20030;-75
2022/12/20 09:06:10;;;;;;;21.55;9.73;;;19.80;58.40;;;;;;4990845;28;20026;-75
2022/12/20 09:08:37;;;;;;;29.25;9.90;;;19.70;58.30;;;;;;4990784;28;20022;-74
2022/12/20 09:11:05;;;;;;;20.67;10.40;;;19.80;59.50;;;;;;4989392;28;20558;-75
2022/12/20 09:13:31;;;;;;;27.77;10.60;;;19.80;62.00;;;;;;4989620;28;20475;-75
2022/12/20 09:16:00;;;;;;;26.95;10.77;;;19.90;62.40;;;;;;4989014;28;20029;-77
2022/12/20 09:18:26;;;;;;;32.87;11.37;;;19.90;63.90;;;;;;4972856;28;20533;-74
2022/12/20 09:20:52;;;;;;;25.48;11.35;;;20.00;64.00;;;;;;4990736;28;20388;-74
2022/12/20 09:23:17;;;;;;;24.60;11.02;;;20.00;64.90;;;;;;4990915;28;20034;-77
2022/12/20 09:25:44;;;;;;;28.23;15.55;;;19.90;63.20;;;;;;4989394;28;20093;-74
2022/12/20 09:28:09;;;;;;;23.55;13.02;;;19.70;59.10;;;;;;4990854;28;20085;-75
2022/12/20 09:30:35;;;;;;;26.65;16.45;;;19.60;60.50;;;;;;4989276;28;20064;-74
2022/12/20 09:33:01;;;;;;;30.10;17.08;;;19.60;57.60;;;;;;4973246;28;20037;-76
2022/12/20 09:35:27;;;;;;;37.75;16.73;;;19.70;58.20;;;;;;4987984;28;20178;-75
2022/12/20 09:37:52;;;;;;;43.20;16.48;;;19.70;57.60;;;;;;4979701;28;20483;-75
2022/12/20 09:40:21;;;;;;;28.02;16.10;;;19.70;58.00;;;;;;4985941;28;20024;-75
2022/12/20 09:42:48;;;;;;;37.53;16.65;;;19.70;58.10;;;;;;4987972;28;20110;-75
2022/12/20 09:45:29;;;;;;;34.63;15.93;;;19.70;57.70;;;;;;4988232;28;20038;-75
2022/12/20 09:47:54;;;;;;;29.85;15.45;;;19.80;57.70;;;;;;4988878;28;20038;-75
2022/12/20 09:50:45;;;;;;;31.13;16.55;;;19.80;57.60;;;;;;4987432;28;20088;-75
2022/12/20 09:53:34;;;;;;;26.40;15.10;;;19.80;57.60;;;;;;4988748;28;20034;-75
2022/12/20 09:56:09;;;;;;;29.25;13.95;;;19.80;57.30;;;;;;4990240;28;20062;-75
2022/12/20 09:58:55;;;;;;;26.95;14.00;;;19.80;57.60;;;;;;4988903;28;20034;-76
2022/12/20 10:01:23;;;;;;;29.98;14.60;;;19.80;57.40;;;;;;4988843;28;20030;-75
2022/12/20 10:03:50;;;;;;;24.35;14.65;;;19.80;57.50;;;;;;4988560;28;20049;-75
2022/12/20 10:06:34;;;;;;;26.80;14.07;;;19.90;57.70;;;;;;4988809;28;20088;-76
2022/12/20 10:09:03;;;;;;;26.92;14.70;;;19.80;57.80;;;;;;4988608;28;20105;-75
2022/12/20 10:11:41;;;;;;;30.08;14.45;;;19.80;58.00;;;;;;4971898;28;20050;-75
2022/12/20 10:14:25;;;;;;;26.80;14.25;;;19.80;58.10;;;;;;4989722;28;20034;-76
2022/12/20 10:16:59;;;;;;;27.20;13.32;;;19.80;58.10;;;;;;4989786;28;20031;-74
2022/12/20 10:19:39;;;;;;;25.42;13.57;;;19.90;58.30;;;;;;4989717;28;20027;-74
2022/12/20 10:22:28;;;;;;;28.95;13.93;;;19.90;58.40;;;;;;4988269;28;20156;-75
2022/12/20 10:25:01;;;;;;;33.47;13.90;;;19.90;58.40;;;;;;4988231;28;20030;-75
2022/12/20 10:27:27;;;;;;;29.77;13.95;;;19.90;58.40;;;;;;4989928;28;20116;-75
2022/12/20 10:29:53;;;;;;;31.40;13.55;;;19.90;59.00;;;;;;4989718;28;20027;-75
2022/12/20 10:32:22;;;;;;;32.47;14.10;;;19.90;58.70;;;;;;4988316;28;20030;-75
2022/12/20 10:35:13;;;;;;;24.95;12.93;;;19.90;59.20;;;;;;4988214;28;20565;-75
2022/12/20 10:37:58;;;;;;;27.73;13.48;;;19.90;59.30;;;;;;4989852;28;20041;-74
2022/12/20 10:40:39;;;;;;;29.15;13.15;;;19.90;60.30;;;;;;4988321;28;20034;-77
2022/12/20 10:43:13;;;;;;;29.60;12.93;;;19.90;60.50;;;;;;4988255;28;20030;-74
2022/12/20 10:45:42;;;;;;;23.55;12.30;;;19.90;60.10;;;;;;4988316;28;20169;-74
2022/12/20 10:48:33;;;;;;;24.48;12.02;;;19.90;59.20;;;;;;4972630;28;20034;-75
2022/12/20 10:51:21;;;;;;;28.88;12.70;;;19.90;59.30;;;;;;4988939;28;20483;-75
2022/12/20 10:54:02;;;;;;;24.52;12.38;;;20.00;59.80;;;;;;4988216;28;20042;-75
2022/12/20 10:56:33;;;;;;;21.45;12.90;;;20.00;59.50;;;;;;4991104;28;20375;-75
2022/12/20 10:59:16;;;;;;;25.80;13.05;;;19.90;59.40;;;;;;4991925;28;20213;-75
2022/12/20 11:01:47;;;;;;;23.30;12.63;;;19.90;59.30;;;;;;4992585;28;20470;-75
2022/12/20 11:04:33;;;;;;;23.70;12.52;;;19.90;59.30;;;;;;4992279;28;20034;-75
2022/12/20 11:07:01;;;;;;;22.52;11.90;;;19.90;59.30;;;;;;4993100;28;20022;-75
2022/12/20 11:09:30;;;;;;;21.92;12.32;;;19.90;59.30;;;;;;4992758;28;20101;-74
2022/12/20 11:11:58;;;;;;;22.25;11.27;;;19.90;59.30;;;;;;4993019;28;20528;-75
2022/12/20 11:14:24;;;;;;;21.50;11.95;;;19.90;59.30;;;;;;4991936;28;20046;-75
2022/12/20 11:16:53;;;;;;;24.77;11.85;;;19.90;59.30;;;;;;4975211;28;20034;-76
2022/12/20 11:19:45;;;;;;;19.08;11.68;;;19.90;59.20;;;;;;4992721;28;20498;-76
2022/12/20 11:22:41;;;;;;;20.42;12.02;;;19.90;59.00;;;;;;4992334;28;20540;-76
2022/12/20 11:25:30;;;;;;;20.48;11.43;;;19.90;59.00;;;;;;4992820;28;20023;-76
2022/12/20 11:28:07;;;;;;;21.83;11.85;;;19.90;58.80;;;;;;4991476;28;20038;-74
2022/12/20 11:31:19;;;;;;;22.08;11.80;;;19.90;58.80;;;;;;4992810;28;20218;-75
2022/12/20 11:34:05;;;;;;;18.52;11.38;;;19.90;58.70;;;;;;4990057;28;20129;-74
2022/12/20 11:36:40;;;;;;;18.75;11.07;;;19.90;58.70;;;;;;4989682;28;20048;-74
2022/12/20 11:39:22;;;;;;;18.17;10.93;;;19.90;58.70;;;;;;4991226;28;20046;-73
2022/12/20 11:42:08;;;;;;;22.48;11.45;;;19.90;58.70;;;;;;4991368;28;20026;-74
2022/12/20 11:44:55;;;;;;;24.98;11.57;;;19.90;58.70;;;;;;4991484;28;20391;-74
2022/12/20 11:47:50;;;;;;;19.55;10.95;;;19.90;58.60;;;;;;4992006;28;20034;-74
2022/12/20 11:50:44;;;;;;;18.30;10.68;;;19.90;58.50;;;;;;4990604;28;20117;-75
2022/12/20 11:53:35;;;;;;;22.42;10.68;;;19.90;58.30;;;;;;4992303;28;20516;-75
2022/12/20 11:56:07;;;;;;;20.10;10.20;;;19.90;58.30;;;;;;4992359;28;20523;-74
2022/12/20 11:58:47;;;;;;;19.42;10.25;;;19.90;58.30;;;;;;4991910;28;20034;-74
2022/12/20 12:01:19;;;;;;;25.42;12.20;;;19.90;58.60;;;;;;4990904;28;20037;-74
2022/12/20 12:03:58;;;;;;;19.33;10.10;;;19.90;59.00;;;;;;4988899;28;20569;-74
2022/12/20 12:06:58;;;;;;;19.05;10.25;;;19.90;58.40;;;;;;4989917;28;20113;-74
2022/12/20 12:09:28;;;;;;;22.17;10.75;;;19.90;58.30;;;;;;4988726;28;20042;-75
2022/12/20 12:12:01;;;;;;;18.73;10.20;;;19.90;58.50;;;;;;4991909;28;20396;-74
2022/12/20 12:14:37;;;;;;;20.65;10.95;;;19.90;58.50;;;;;;4992175;28;20033;-74
2022/12/20 12:17:11;;;;;;;17.40;10.02;;;19.90;58.70;;;;;;4982669;28;20030;-74
2022/12/20 12:19:41;;;;;;;17.25;10.10;;;19.90;58.70;;;;;;4986818;28;20085;-74
2022/12/20 12:22:11;;;;;;;;;;;19.90;58.60;;;;;;4983939;28;20030;-74
2022/12/20 12:24:50;;;;;;;19.88;11.13;;;19.90;58.60;;;;;;4989793;28;19956;-76
2022/12/20 12:27:25;;;;;;;22.25;11.15;;;19.90;58.70;;;;;;4985429;28;20589;-74
2022/12/20 12:29:55;;;;;;;17.90;10.23;;;19.90;58.70;;;;;;4990143;28;20037;-76
2022/12/20 12:32:29;;;;;;;17.50;9.60;;;19.90;59.30;;;;;;4989856;28;20030;-74
2022/12/20 12:35:22;;;;;;;18.88;10.07;;;19.90;58.70;;;;;;4991661;28;20038;-74
2022/12/20 12:37:48;;;;;;;19.35;10.45;;;19.90;58.70;;;;;;4994169;28;20044;-75
2022/12/20 12:40:37;;;;;;;19.13;10.45;;;19.90;58.70;;;;;;5009802;28;20386;-74
2022/12/20 12:43:16;;;;;;;20.02;10.68;;;20.00;58.80;;;;;;4995822;28;20137;-75
2022/12/20 12:45:49;;;;;;;17.90;9.87;;;20.00;58.80;;;;;;4990982;28;20042;-75
2022/12/20 12:48:34;;;;;;;27.25;10.45;;;20.00;58.80;;;;;;4991282;28;20030;-75
2022/12/20 12:51:01;;;;;;;20.25;9.75;;;20.00;58.80;;;;;;4985910;28;20407;-75
2022/12/20 12:53:37;;;;;;;17.08;10.05;;;20.00;58.70;;;;;;4982388;28;20089;-75
2022/12/20 12:56:24;;;;;;;18.52;9.90;;;20.00;58.60;;;;;;4991320;28;20103;-74
2022/12/20 12:59:05;;;;;;;19.92;10.25;;;20.00;58.50;;;;;;4989676;28;20064;-76